Time;durP1;ratioP1;P1;durP2;ratioP2;P2;SDS_P1;SDS_P2;PMS_P1;PMS_P2;Temp;Humidity;BMP_temperature;BMP_pressure;BME280_temperature;BME280_humidity;BME280_pressure;Samples;Min_cycle;Max_cycle;Signal;HPM_P1;HPM_P2
2022/01/25 00:08:41;;;;;;;36.13;24.87;;;;;;;-1.09;100.00;101103.97;4842023;29;20233;-81
2022/01/25 00:27:24;;;;;;;36.47;26.57;;;;;;;-1.12;100.00;101082.31;4841537;29;20196;-81
2022/01/25 00:30:20;;;;;;;38.27;27.17;;;;;;;-1.10;100.00;101083.84;4826323;29;20212;-81
2022/01/25 00:32:42;;;;;;;37.13;26.60;;;;;;;-1.17;100.00;101073.91;4841484;29;20205;-81
2022/01/25 00:35:09;;;;;;;38.00;28.67;;;;;;;-1.13;100.00;101076.19;4843159;29;20201;-81
2022/01/25 00:37:36;;;;;;;37.13;27.53;;;;;;;-1.21;100.00;101065.34;4829571;29;20197;-81
2022/01/25 00:40:04;;;;;;;37.23;27.67;;;;;;;-1.13;100.00;101070.94;4829421;29;20527;-81
2022/01/25 00:42:31;;;;;;;37.93;28.00;;;;;;;-1.09;100.00;101072.38;4829537;29;20201;-81
2022/01/25 00:44:58;;;;;;;35.97;27.50;;;;;;;-1.12;100.00;101072.59;4844617;29;20219;-81
2022/01/25 00:47:26;;;;;;;40.23;27.97;;;;;;;-1.12;100.00;101069.97;4844512;29;20197;-82
2022/01/25 00:49:53;;;;;;;37.80;27.87;;;;;;;-1.15;100.00;101057.03;4814428;29;20201;-81
2022/01/25 00:54:48;;;;;;;36.13;27.57;;;;;;;-1.07;100.00;101080.16;4844498;29;20490;-81
2022/01/25 00:57:15;;;;;;;39.93;27.73;;;;;;;-1.07;100.00;101078.38;4814534;29;20201;-81
2022/01/25 00:59:42;;;;;;;36.60;26.63;;;;;;;-1.05;100.00;101078.25;4829252;29;20617;-81
2022/01/25 01:02:12;;;;;;;39.70;28.80;;;;;;;-1.09;100.00;101077.66;4844569;29;20738;-81
2022/01/25 01:04:42;;;;;;;36.13;27.53;;;;;;;-1.16;100.00;101065.03;4844537;29;20285;-81
2022/01/25 01:07:14;;;;;;;37.27;28.03;;;;;;;-1.03;100.00;101079.00;4829282;29;20197;-81
2022/01/25 01:09:45;;;;;;;40.03;28.63;;;;;;;-1.15;100.00;101072.81;4829188;29;20189;-80
2022/01/25 01:29:04;;;;;;;39.53;27.60;;;;;;;-1.07;100.00;101064.38;4844145;29;20200;-81
2022/01/25 01:43:53;;;;;;;40.13;28.90;;;;;;;-1.05;100.00;101052.81;4843823;29;20213;-81
2022/01/25 01:46:32;;;;;;;37.20;27.37;;;;;;;-1.06;100.00;101048.50;4813786;29;20761;-81
2022/01/25 01:49:02;;;;;;;37.50;27.47;;;;;;;-1.12;100.00;101043.66;4830117;29;20209;-81
2022/01/25 01:51:33;;;;;;;37.43;27.83;;;;;;;-1.04;100.00;101040.50;4828455;29;20284;-81
2022/01/25 01:54:07;;;;;;;38.57;27.13;;;;;;;-1.08;100.00;101042.50;4828784;29;20242;-81
2022/01/25 01:56:35;;;;;;;41.70;29.30;;;;;;;-1.13;100.00;101044.63;4828511;29;20618;-81
2022/01/25 01:59:04;;;;;;;36.07;28.13;;;;;;;-1.18;100.00;101036.22;4828339;29;20287;-81
2022/01/25 02:01:32;;;;;;;37.97;27.67;;;;;;;-1.23;100.00;101033.09;4843285;29;20545;-81
2022/01/25 02:04:01;;;;;;;38.53;28.53;;;;;;;-1.27;100.00;101025.53;4828231;29;20705;-81
2022/01/25 02:06:28;;;;;;;36.23;26.90;;;;;;;-1.18;100.00;101040.66;4843174;29;20209;-81
2022/01/25 02:08:55;;;;;;;39.77;28.13;;;;;;;-1.24;100.00;101036.66;4813085;29;20202;-81
2022/01/25 02:11:22;;;;;;;37.27;27.77;;;;;;;-1.28;100.00;101021.22;4842428;29;20193;-81
2022/01/25 02:13:49;;;;;;;39.33;27.80;;;;;;;-1.28;100.00;101022.06;4827619;29;20542;-81
2022/01/25 02:24:36;;;;;;;41.73;29.13;;;;;;;-1.25;100.00;101021.81;4843025;29;20624;-81
2022/01/25 02:27:04;;;;;;;37.90;28.00;;;;;;;-1.25;100.00;101020.97;4827527;29;20205;-81
2022/01/25 02:29:31;;;;;;;37.77;28.00;;;;;;;-1.44;100.00;101005.69;4827295;29;20209;-81
2022/01/25 02:31:58;;;;;;;37.23;28.07;;;;;;;-1.42;100.00;101003.81;4842845;29;20260;-81
2022/01/25 02:34:26;;;;;;;35.27;26.43;;;;;;;-1.37;100.00;101007.78;4812538;29;20197;-81
2022/01/25 02:36:57;;;;;;;37.33;27.37;;;;;;;-1.43;100.00;101012.63;4842486;29;20268;-81
2022/01/25 02:39:24;;;;;;;39.27;28.90;;;;;;;-1.41;100.00;101010.75;4811888;29;20816;-81
2022/01/25 02:41:52;;;;;;;37.87;27.90;;;;;;;-1.44;100.00;101005.69;4827429;29;20193;-81
2022/01/25 02:44:24;;;;;;;38.00;27.57;;;;;;;-1.41;100.00;101011.59;4842471;29;20240;-81
2022/01/25 02:49:34;;;;;;;36.70;27.57;;;;;;;-1.54;100.00;100994.19;4842433;29;20189;-81
2022/01/25 02:52:03;;;;;;;38.87;27.83;;;;;;;-1.58;100.00;100995.31;4842085;29;20681;-81
2022/01/25 02:54:31;;;;;;;38.97;28.23;;;;;;;-1.64;100.00;101001.03;4827146;29;20229;-81
2022/01/25 02:56:58;;;;;;;39.00;28.33;;;;;;;-1.70;100.00;100983.91;4827261;29;20208;-81
2022/01/25 02:59:26;;;;;;;37.10;28.23;;;;;;;-1.75;100.00;100987.78;4811651;29;20204;-81
2022/01/25 03:01:53;;;;;;;38.93;29.43;;;;;;;-1.86;100.00;100975.41;4827122;29;20204;-81
2022/01/25 03:04:21;;;;;;;38.70;28.00;;;;;;;-1.79;100.00;100988.03;4811912;29;20697;-82
2022/01/25 03:06:48;;;;;;;39.57;27.17;;;;;;;-1.86;100.00;100993.78;4826987;29;20197;-81
2022/01/25 03:09:15;;;;;;;39.43;28.07;;;;;;;-1.94;100.00;100994.34;4827006;29;20207;-81
2022/01/25 03:11:49;;;;;;;39.00;27.90;;;;;;;-1.96;100.00;100996.22;4811834;29;20260;-81
2022/01/25 03:14:18;;;;;;;39.10;27.50;;;;;;;-2.12;100.00;100977.25;4827270;29;20547;-81
2022/01/25 03:17:06;;;;;;;42.93;27.60;;;;;;;-2.15;100.00;100987.97;4842056;29;20192;-81
2022/01/25 03:22:05;;;;;;;41.50;28.50;;;;;;;-2.26;100.00;100991.31;4841794;29;20189;-81
2022/01/25 03:24:32;;;;;;;42.97;28.60;;;;;;;-2.27;100.00;100980.91;4826905;29;20248;-81
2022/01/25 03:26:59;;;;;;;40.60;28.07;;;;;;;-2.39;100.00;100964.22;4826826;29;20207;-81
2022/01/25 03:29:26;;;;;;;39.87;28.00;;;;;;;-2.34;100.00;100975.25;4826579;29;20200;-81
2022/01/25 03:31:52;;;;;;;36.17;26.53;;;;;;;-2.32;100.00;100988.25;4826631;29;20205;-81
2022/01/25 03:34:19;;;;;;;39.77;28.47;;;;;;;-2.29;100.00;100991.50;4826891;29;20689;-81
2022/01/25 03:36:47;;;;;;;42.47;29.40;;;;;;;-2.25;100.00;100995.63;4841791;29;20585;-81
2022/01/25 03:39:13;;;;;;;39.20;27.77;;;;;;;-2.21;100.00;100993.63;4826467;29;20241;-81
2022/01/25 03:41:40;;;;;;;40.00;28.03;;;;;;;-2.23;100.00;100991.09;4811381;29;20295;-80
2022/01/25 03:44:07;;;;;;;40.87;29.13;;;;;;;-2.16;100.00;100988.06;4841582;29;20272;-81
2022/01/25 03:46:55;;;;;;;41.53;29.13;;;;;;;-2.23;100.00;100991.09;4826825;29;20197;-81
2022/01/25 03:52:08;;;;;;;41.43;28.47;;;;;;;-2.11;100.00;100992.06;4826386;29;20253;-81
2022/01/25 03:54:35;;;;;;;39.27;28.90;;;;;;;-2.11;100.00;100984.19;4841855;29;20183;-81
2022/01/25 03:57:02;;;;;;;40.13;28.33;;;;;;;-2.16;100.00;100967.06;4842637;29;20189;-81
2022/01/25 03:59:30;;;;;;;41.13;29.53;;;;;;;-2.12;100.00;100973.78;4826630;29;20189;-81
2022/01/25 04:01:57;;;;;;;40.67;28.90;;;;;;;-1.98;100.00;100987.63;4841598;29;20200;-81
2022/01/25 04:04:26;;;;;;;42.70;30.67;;;;;;;-1.91;100.00;100988.88;4826238;29;20643;-80
2022/01/25 04:06:53;;;;;;;43.63;30.07;;;;;;;-1.92;100.00;100967.97;4841616;29;20204;-80
2022/01/25 04:09:21;;;;;;;44.13;29.27;;;;;;;-1.87;100.00;100969.31;4841819;29;20216;-81
2022/01/25 04:11:48;;;;;;;44.60;29.50;;;;;;;-1.75;100.00;100974.66;4814751;29;20212;-81
2022/01/25 04:14:15;;;;;;;42.47;29.57;;;;;;;-1.79;100.00;100967.00;4829957;29;20581;-81
2022/01/25 04:16:52;;;;;;;41.10;29.77;;;;;;;-1.75;100.00;100965.00;4829762;29;20201;-80
2022/01/25 04:19:30;;;;;;;43.60;30.50;;;;;;;-1.63;100.00;100973.81;4829814;29;20181;-81
2022/01/25 04:27:09;;;;;;;42.93;29.83;;;;;;;-1.59;100.00;100960.34;4845901;29;20235;-80
2022/01/25 04:29:36;;;;;;;42.77;29.60;;;;;;;-1.52;100.00;100972.06;4829482;29;20208;-81
2022/01/25 04:32:06;;;;;;;44.10;30.43;;;;;;;-1.48;100.00;100977.94;4814481;29;20212;-81
2022/01/25 04:54:09;;;;;;;54.33;31.87;;;;;;;-1.30;100.00;100952.13;4844637;29;20197;-81
2022/01/25 04:56:13;;;;;;;55.63;32.97;;;;;;;-1.29;100.00;100941.50;4834760;29;20225;-81
2022/01/25 04:58:50;;;;;;;52.83;32.90;;;;;;;-1.35;100.00;100928.78;4829220;29;20184;-81
2022/01/25 05:01:17;;;;;;;53.00;31.43;;;;;;;-1.26;100.00;100937.81;4829069;29;20223;-81
2022/01/25 05:04:05;;;;;;;51.30;32.57;;;;;;;-1.21;100.00;100939.13;4829022;29;20208;-81
2022/01/25 05:06:32;;;;;;;56.67;31.17;;;;;;;-1.18;100.00;100927.56;4844324;29;20674;-81
2022/01/25 05:09:09;;;;;;;53.90;33.03;;;;;;;-1.19;100.00;100937.25;4829041;29;20589;-81
2022/01/25 05:11:42;;;;;;;56.87;33.07;;;;;;;-1.15;100.00;100943.09;4844131;29;20189;-81
2022/01/25 05:14:19;;;;;;;55.93;32.37;;;;;;;-1.21;100.00;100935.69;4844354;29;20228;-81
2022/01/25 05:16:59;;;;;;;55.20;31.63;;;;;;;-1.17;100.00;100924.84;4828788;29;20231;-81
2022/01/25 05:22:04;;;;;;;57.27;32.70;;;;;;;-1.11;100.00;100929.63;4828368;29;20231;-82
2022/01/25 05:22:23;;;;;;;54.90;31.97;;;;;;;-1.13;100.00;100923.66;4827624;29;20197;-81
2022/01/25 05:24:50;;;;;;;54.60;31.50;;;;;;;-1.10;100.00;100914.69;4843991;29;20265;-81
2022/01/25 05:27:19;;;;;;;52.77;30.90;;;;;;;-1.06;100.00;100927.50;4828505;29;20197;-80
2022/01/25 05:29:46;;;;;;;54.77;30.70;;;;;;;-1.04;100.00;100928.22;4843689;29;20276;-81
2022/01/25 05:32:13;;;;;;;56.63;32.30;;;;;;;-1.15;100.00;100907.13;4828875;29;20189;-81
2022/01/25 05:34:41;;;;;;;53.90;30.23;;;;;;;-0.99;100.00;100939.25;4828356;29;20571;-81
2022/01/25 05:37:08;;;;;;;49.90;29.23;;;;;;;-1.09;100.00;100919.00;4843677;29;20195;-81
2022/01/25 05:39:37;;;;;;;50.77;29.83;;;;;;;-1.07;100.00;100924.97;4828199;29;20663;-81
2022/01/25 05:47:15;;;;;;;48.67;28.37;;;;;;;-1.05;100.00;100938.84;4843488;29;20577;-81
2022/01/25 05:49:46;;;;;;;53.83;29.60;;;;;;;-1.12;100.00;100922.66;4828254;29;20204;-81
2022/01/25 05:52:13;;;;;;;49.77;29.07;;;;;;;-1.08;100.00;100925.94;4843244;29;20192;-81
2022/01/25 05:54:40;;;;;;;49.80;29.70;;;;;;;-1.03;100.00;100927.28;4828318;29;20197;-81
2022/01/25 05:57:07;;;;;;;52.03;29.43;;;;;;;-0.98;100.00;100937.47;4827852;29;20225;-81
2022/01/25 05:59:36;;;;;;;52.57;30.13;;;;;;;-0.94;100.00;100928.38;4828005;29;20193;-81
2022/01/25 06:02:05;;;;;;;56.43;31.20;;;;;;;-1.00;100.00;100907.78;4812841;29;20253;-81
2022/01/25 06:04:32;;;;;;;49.70;28.80;;;;;;;-0.98;100.00;100913.78;4843620;29;20281;-81
2022/01/25 06:06:59;;;;;;;53.67;30.43;;;;;;;-0.96;100.00;100923.22;4842952;29;20221;-81
2022/01/25 06:09:26;;;;;;;51.40;30.20;;;;;;;-0.88;100.00;100934.00;4842966;29;20197;-81
2022/01/25 06:11:54;;;;;;;50.70;29.80;;;;;;;-0.91;100.00;100922.88;4812904;29;20598;-81
2022/01/25 06:14:21;;;;;;;51.70;30.57;;;;;;;-0.88;100.00;100933.16;4842927;29;20598;-81
2022/01/25 06:16:50;;;;;;;52.23;30.00;;;;;;;-0.89;100.00;100934.13;4828159;29;20209;-81
2022/01/25 06:19:16;;;;;;;51.07;29.83;;;;;;;-0.93;100.00;100927.41;4842926;29;20568;-81
2022/01/25 06:21:43;;;;;;;52.27;30.63;;;;;;;-0.90;100.00;100928.03;4843003;29;20201;-81
2022/01/25 06:24:10;;;;;;;51.53;30.07;;;;;;;-0.94;100.00;100926.59;4842990;29;20578;-81
2022/01/25 06:26:37;;;;;;;48.40;30.47;;;;;;;-1.04;100.00;100922.97;4843652;29;20212;-81
2022/01/25 06:29:03;;;;;;;53.90;30.90;;;;;;;-0.98;100.00;100926.94;4842640;29;20201;-81
2022/01/25 06:31:31;;;;;;;47.13;29.30;;;;;;;-0.92;100.00;100919.41;4843787;29;20196;-81
2022/01/25 06:33:59;;;;;;;48.87;30.70;;;;;;;-0.85;100.00;100930.31;4843469;29;20197;-81
2022/01/25 06:36:26;;;;;;;47.87;29.83;;;;;;;-0.83;100.00;100917.03;4827137;29;20235;-81
2022/01/25 06:38:53;;;;;;;51.17;30.50;;;;;;;-0.84;100.00;100931.16;4827513;29;20297;-81
2022/01/25 06:41:24;;;;;;;48.97;29.07;;;;;;;-0.84;100.00;100929.34;4827088;29;20207;-81
2022/01/25 06:43:51;;;;;;;48.60;29.83;;;;;;;-0.81;100.00;100936.19;4827544;29;20191;-81
2022/01/25 06:46:18;;;;;;;46.43;28.80;;;;;;;-0.79;100.00;100936.91;4827068;29;20221;-81
2022/01/25 06:48:45;;;;;;;46.80;28.97;;;;;;;-0.84;100.00;100937.22;4827190;29;20261;-81
2022/01/25 06:51:13;;;;;;;47.87;28.77;;;;;;;-0.90;100.00;100920.13;4826990;29;20215;-81
2022/01/25 06:53:40;;;;;;;44.13;27.33;;;;;;;-0.81;100.00;100931.75;4842425;29;20273;-81
2022/01/25 06:56:07;;;;;;;47.13;29.27;;;;;;;-0.85;100.00;100918.97;4827046;29;20292;-81
2022/01/25 06:58:34;;;;;;;45.90;28.40;;;;;;;-0.84;100.00;100931.97;4842426;29;20205;-81
2022/01/25 07:01:00;;;;;;;48.13;28.73;;;;;;;-0.78;100.00;100922.78;4841985;29;20601;-81
2022/01/25 07:03:28;;;;;;;46.77;28.67;;;;;;;-0.78;100.00;100930.69;4827480;29;20597;-81
2022/01/25 07:05:55;;;;;;;43.33;27.10;;;;;;;-0.68;100.00;100926.41;4811911;29;20639;-81
2022/01/25 07:08:21;;;;;;;46.83;28.67;;;;;;;-0.80;100.00;100911.56;4827255;29;20292;-81
2022/01/25 07:10:52;;;;;;;44.93;28.00;;;;;;;-0.65;100.00;100936.69;4827636;29;20189;-81
2022/01/25 07:13:19;;;;;;;51.33;29.97;;;;;;;-0.71;100.00;100931.91;4842042;29;20495;-81
2022/01/25 07:15:45;;;;;;;44.93;27.97;;;;;;;-0.68;100.00;100947.47;4827022;29;20597;-81
2022/01/25 07:18:15;;;;;;;45.77;27.63;;;;;;;-0.64;100.00;100938.38;4827056;29;20197;-81
2022/01/25 07:20:42;;;;;;;46.40;28.30;;;;;;;-0.65;100.00;100934.06;4842719;29;20220;-81
2022/01/25 07:23:12;;;;;;;46.20;28.87;;;;;;;-0.63;100.00;100926.91;4812113;29;20197;-81
2022/01/25 07:25:39;;;;;;;49.40;28.83;;;;;;;-0.63;100.00;100927.75;4826700;29;20217;-81
2022/01/25 07:28:06;;;;;;;45.63;28.43;;;;;;;-0.64;100.00;100925.22;4827085;29;20524;-81
2022/01/25 07:30:32;;;;;;;46.83;29.20;;;;;;;-0.58;100.00;100925.59;4841553;29;20215;-81
2022/01/25 07:33:05;;;;;;;46.93;28.93;;;;;;;-0.64;100.00;100926.06;4826440;29;20201;-81
2022/01/25 07:35:38;;;;;;;49.13;28.87;;;;;;;-0.58;100.00;100940.56;4841907;29;20189;-81
2022/01/25 07:38:10;;;;;;;48.43;29.43;;;;;;;-0.60;100.00;100935.41;4826676;29;20197;-81
2022/01/25 07:40:37;;;;;;;46.17;28.40;;;;;;;-0.58;100.00;100932.66;4826303;29;20316;-81
2022/01/25 07:43:07;;;;;;;45.77;28.83;;;;;;;-0.58;100.00;100915.06;4841779;29;20193;-82
2022/01/25 07:45:36;;;;;;;50.43;29.70;;;;;;;-0.45;100.00;100921.06;4841398;29;20217;-80
2022/01/25 07:48:09;;;;;;;52.17;31.63;;;;;;;-0.41;100.00;100923.44;4841792;29;20209;-81
2022/01/25 07:50:38;;;;;;;46.83;29.67;;;;;;;-0.27;100.00;100939.88;4841668;29;20489;-81
2022/01/25 07:53:05;;;;;;;52.87;31.80;;;;;;;-0.31;100.00;100925.25;4826823;29;20299;-81
2022/01/25 07:55:32;;;;;;;48.93;30.30;;;;;;;-0.24;100.00;100926.47;4825554;29;20495;-81
2022/01/25 07:57:59;;;;;;;48.33;28.77;;;;;;;-0.17;100.00;100909.22;4840024;29;20197;-81
2022/01/25 08:00:26;;;;;;;44.87;27.57;;;;;;;0.12;100.00;100925.38;4825424;29;20522;-82
2022/01/25 08:02:53;;;;;;;44.47;28.10;;;;;;;-0.03;100.00;100913.41;4841980;29;20650;-81
2022/01/25 08:05:27;;;;;;;39.90;25.47;;;;;;;-0.14;100.00;100922.16;4841400;29;20353;-81
2022/01/25 08:08:20;;;;;;;43.40;27.07;;;;;;;0.02;100.00;100919.16;4799383;29;20224;-81
2022/01/25 08:11:02;;;;;;;41.40;26.53;;;;;;;0.03;100.00;100914.72;4825592;29;20273;-81
2022/01/25 08:13:37;;;;;;;43.77;26.37;;;;;;;0.15;100.00;100919.03;4841032;29;20209;-81
2022/01/25 08:16:24;;;;;;;36.20;23.13;;;;;;;0.21;100.00;100929.09;4827085;29;20240;-81
2022/01/25 08:19:05;;;;;;;37.53;23.93;;;;;;;0.33;100.00;100939.47;4785918;30;20207;-82
2022/01/25 08:21:49;;;;;;;38.10;24.23;;;;;;;0.33;100.00;100931.56;4760911;30;20269;-81
2022/01/25 08:24:53;;;;;;;36.87;24.30;;;;;;;0.47;100.00;100927.03;4705207;30;20233;-81
2022/01/25 08:27:47;;;;;;;38.93;23.30;;;;;;;0.56;100.00;100929.72;4663805;30;20306;-81
2022/01/25 08:30:20;;;;;;;39.27;25.43;;;;;;;0.66;100.00;100933.28;4663525;30;20220;-82
2022/01/25 08:33:01;;;;;;;41.83;25.63;;;;;;;0.66;100.00;100916.63;4660450;30;20214;-81
2022/01/25 08:35:53;;;;;;;41.73;26.93;;;;;;;0.80;100.00;100913.69;4662200;30;20220;-81
2022/01/25 08:38:48;;;;;;;41.23;27.97;;;;;;;0.97;100.00;100915.81;4669382;30;20344;-82
2022/01/25 08:41:21;;;;;;;48.67;32.93;;;;;;;1.01;100.00;100924.31;4667001;30;20223;-81
2022/01/25 08:44:01;;;;;;;38.40;25.10;;;;;;;1.06;100.00;100914.19;4666459;30;20207;-82
2022/01/25 08:46:33;;;;;;;44.40;30.50;;;;;;;1.06;100.00;100920.31;4666107;30;20239;-81
2022/01/25 08:49:14;;;;;;;50.93;33.63;;;;;;;1.17;100.00;100922.03;4694523;30;20529;-81
2022/01/25 08:51:41;;;;;;;47.53;33.97;;;;;;;1.20;100.00;100917.38;4730955;30;20294;-81
2022/01/25 08:54:28;;;;;;;44.43;30.97;;;;;;;1.30;100.00;100922.72;4755237;30;20218;-82
2022/01/25 08:57:13;;;;;;;37.53;24.67;;;;;;;1.43;100.00;100928.63;4804756;29;20208;-82
2022/01/25 08:59:56;;;;;;;38.17;25.30;;;;;;;1.46;100.00;100927.53;4788518;29;20576;-81
2022/01/25 09:02:23;;;;;;;34.33;23.60;;;;;;;1.40;100.00;100922.78;4827289;29;20189;-81
2022/01/25 09:04:50;;;;;;;35.43;22.77;;;;;;;1.55;100.00;100932.88;4826089;29;20209;-82
2022/01/25 09:07:17;;;;;;;34.33;22.70;;;;;;;1.48;100.00;100921.16;4827426;29;20214;-81
2022/01/25 09:09:44;;;;;;;35.30;23.87;;;;;;;1.55;100.00;100929.38;4795728;29;20658;-81
2022/01/25 09:12:11;;;;;;;34.50;23.27;;;;;;;1.62;100.00;100935.84;4827022;29;20197;-81
2022/01/25 09:14:38;;;;;;;34.87;23.73;;;;;;;1.59;100.00;100914.94;4811068;29;20499;-82
2022/01/25 09:17:07;;;;;;;36.80;23.90;;;;;;;1.76;100.00;100922.28;4826154;29;20193;-81
2022/01/25 09:19:38;;;;;;;33.80;22.57;;;;;;;1.85;100.00;100918.84;4824705;29;20194;-82
2022/01/25 09:22:09;;;;;;;35.80;23.93;;;;;;;1.92;100.00;100917.34;4823982;29;20297;-81
2022/01/25 09:24:39;;;;;;;32.80;22.87;;;;;;;2.02;100.00;100922.66;4810330;29;20570;-82
2022/01/25 09:27:08;;;;;;;34.27;21.60;;;;;;;2.08;100.00;100916.84;4826768;29;20225;-81
2022/01/25 09:29:37;;;;;;;31.30;21.47;;;;;;;2.13;100.00;100927.88;4819045;29;20201;-81
2022/01/25 09:32:05;;;;;;;32.40;22.00;;;;;;;2.31;100.00;100925.41;4816306;29;20207;-81
2022/01/25 09:34:32;;;;;;;31.80;20.83;;;;;;;2.35;100.00;100922.34;4819709;29;20495;-80
2022/01/25 09:36:59;;;;;;;31.07;21.13;;;;;;;2.38;100.00;100916.78;4810405;29;20193;-81
2022/01/25 09:39:25;;;;;;;28.57;20.20;;;;;;;2.44;100.00;100926.00;4821480;29;20236;-81
2022/01/25 09:41:53;;;;;;;29.80;20.80;;;;;;;2.44;100.00;100908.31;4828520;29;20201;-80
2022/01/25 09:44:20;;;;;;;28.63;19.73;;;;;;;2.65;100.00;100924.09;4843100;29;20189;-81
2022/01/25 09:46:47;;;;;;;27.53;20.13;;;;;;;2.66;100.00;100913.34;4827220;29;20217;-81
2022/01/25 09:49:16;;;;;;;31.30;21.07;;;;;;;2.65;100.00;100909.06;4831594;29;20197;-82
2022/01/25 09:51:43;;;;;;;30.07;21.40;;;;;;;2.71;100.00;100915.59;4831962;29;20207;-82
2022/01/25 09:54:11;;;;;;;29.90;21.23;;;;;;;2.76;100.00;100905.41;4849295;29;20209;-81
2022/01/25 09:56:38;;;;;;;28.57;19.70;;;;;;;2.80;100.00;100912.09;4849780;29;20195;-82
2022/01/25 09:59:05;;;;;;;28.33;19.80;;;;;;;2.81;100.00;100905.84;4850783;29;20196;-82
2022/01/25 10:01:32;;;;;;;29.13;19.83;;;;;;;2.92;100.00;100913.66;4832108;29;20486;-81
2022/01/25 10:04:00;;;;;;;23.87;17.20;;;;;;;2.76;100.00;100900.13;4843624;29;20220;-81
2022/01/25 10:06:32;;;;;;;21.70;16.00;;;;;;;2.97;100.00;100897.34;4827788;29;20221;-81
2022/01/25 10:08:59;;;;;;;20.17;14.63;;;;;;;2.97;100.00;100911.44;4842575;29;20209;-81
2022/01/25 10:11:26;;;;;;;21.87;15.40;;;;;;;2.99;100.00;100890.09;4827652;29;20287;-80
2022/01/25 10:13:56;;;;;;;15.67;12.43;;;;;;;3.07;100.00;100892.91;4827624;29;20495;-80
2022/01/25 10:16:35;;;;;;;15.17;11.87;;;;;;;3.05;100.00;100894.84;4813160;29;20220;-81
2022/01/25 10:19:05;;;;;;;11.80;9.53;;;;;;;3.01;100.00;100902.22;4843085;29;20185;-81
2022/01/25 10:21:37;;;;;;;10.27;8.30;;;;;;;3.02;100.00;100885.38;4842696;29;20663;-81
2022/01/25 10:24:10;;;;;;;9.20;8.17;;;;;;;3.08;100.00;100900.69;4827603;29;20189;-81
2022/01/25 10:26:57;;;;;;;9.93;8.67;;;;;;;3.06;100.00;100870.03;4827416;29;20220;-81
2022/01/25 10:29:34;;;;;;;8.97;7.97;;;;;;;2.96;100.00;100890.38;4842779;29;20200;-82
2022/01/25 10:32:02;;;;;;;10.73;7.90;;;;;;;2.97;100.00;100887.59;4827793;29;20181;-81
2022/01/25 10:34:33;;;;;;;9.60;7.37;;;;;;;3.04;100.00;100887.84;4837492;29;20537;-81
2022/01/25 10:37:06;;;;;;;8.33;7.30;;;;;;;3.06;100.00;100877.97;4829264;29;20667;-82
2022/01/25 10:39:36;;;;;;;8.60;7.07;;;;;;;3.08;100.00;100870.72;4824093;29;20228;-82
2022/01/25 10:42:09;;;;;;;10.97;7.67;;;;;;;2.92;100.00;100860.72;4809255;29;20205;-81
2022/01/25 10:44:54;;;;;;;8.53;6.87;;;;;;;2.90;100.00;100867.09;4809605;29;20212;-81
2022/01/25 10:47:49;;;;;;;8.43;7.13;;;;;;;2.90;100.00;100867.09;4824273;29;20228;-81
2022/01/25 10:50:21;;;;;;;8.10;6.97;;;;;;;2.95;100.00;100876.31;4792914;29;20302;-81
2022/01/25 10:53:08;;;;;;;8.63;6.33;;;;;;;2.85;100.00;100867.53;4809034;29;20560;-82
2022/01/25 10:55:40;;;;;;;9.10;7.07;;;;;;;2.75;100.00;100871.19;4808879;29;20586;-81
2022/01/25 10:58:07;;;;;;;10.70;9.07;;;;;;;2.58;100.00;100862.09;4809608;29;20182;-81
2022/01/25 11:00:42;;;;;;;9.50;8.10;;;;;;;2.58;100.00;100864.75;4820197;29;20192;-81
2022/01/25 11:03:09;;;;;;;14.70;11.87;;;;;;;2.61;100.00;100857.34;4814415;29;20215;-82
2022/01/25 11:05:38;;;;;;;11.63;8.07;;;;;;;2.60;100.00;100868.94;4847923;29;20211;-82
2022/01/25 11:08:13;;;;;;;9.33;8.20;;;;;;;2.64;100.00;100870.34;4837675;29;20212;-81
2022/01/25 11:10:53;;;;;;;8.97;7.20;;;;;;;2.76;100.00;100859.59;4825696;29;20208;-81
2022/01/25 11:13:34;;;;;;;8.77;7.13;;;;;;;2.69;100.00;100869.91;4845250;29;20192;-81
2022/01/25 11:16:11;;;;;;;9.10;6.90;;;;;;;2.63;100.00;100867.81;4844151;29;20259;-81
2022/01/25 11:18:39;;;;;;;9.20;7.30;;;;;;;2.68;100.00;100862.94;4844444;29;20276;-81
2022/01/25 11:21:08;;;;;;;9.77;7.80;;;;;;;2.60;100.00;100868.94;4844409;29;20200;-81
2022/01/25 11:23:38;;;;;;;8.50;7.43;;;;;;;2.66;100.00;100863.06;4845136;29;20291;-81
2022/01/25 11:26:09;;;;;;;10.10;8.10;;;;;;;2.63;100.00;100860.72;4832091;29;20206;-81
2022/01/25 11:28:37;;;;;;;10.50;8.57;;;;;;;2.58;100.00;100854.16;4841700;29;20205;-81
2022/01/25 11:31:21;;;;;;;10.53;8.87;;;;;;;2.68;100.00;100855.00;4841444;29;20637;-81
2022/01/25 11:33:50;;;;;;;11.60;8.83;;;;;;;2.79;100.00;100860.16;4826729;29;20573;-81
2022/01/25 11:36:17;;;;;;;8.33;7.00;;;;;;;2.74;100.00;100858.91;4827010;29;20460;-81
2022/01/25 11:38:47;;;;;;;9.80;7.70;;;;;;;2.89;100.00;100855.69;4842696;29;20909;-81
2022/01/25 11:41:18;;;;;;;12.07;8.80;;;;;;;2.94;100.00;100850.00;4826588;29;20197;-81
2022/01/25 11:44:06;;;;;;;8.77;6.97;;;;;;;2.95;100.00;100833.09;4841113;29;20289;-81
2022/01/25 11:46:34;;;;;;;7.97;6.70;;;;;;;2.81;100.00;100838.84;4841103;29;20888;-81
2022/01/25 11:49:05;;;;;;;7.53;6.13;;;;;;;2.98;100.00;100838.16;4841208;29;20197;-82
2022/01/25 11:51:33;;;;;;;7.50;6.10;;;;;;;3.00;100.00;100822.94;4826105;29;20205;-81
2022/01/25 11:54:04;;;;;;;7.13;6.23;;;;;;;2.99;100.00;100826.56;4826372;29;20204;-81
2022/01/25 11:56:31;;;;;;;6.43;5.33;;;;;;;3.04;100.00;100825.16;4841538;29;20472;-82
2022/01/25 11:58:59;;;;;;;6.20;5.40;;;;;;;3.21;100.00;100828.06;4841173;29;20201;-81
2022/01/25 12:01:27;;;;;;;5.93;5.30;;;;;;;3.15;100.00;100818.88;4826170;29;20197;-81
2022/01/25 12:04:00;;;;;;;6.57;5.77;;;;;;;3.01;100.00;100793.69;4841327;29;20355;-81
2022/01/25 12:06:44;;;;;;;6.10;4.93;;;;;;;3.41;100.00;100811.94;4841124;29;20208;-81
2022/01/25 12:09:30;;;;;;;5.50;4.90;;;;;;;3.32;100.00;100807.50;4841081;29;20296;-81
2022/01/25 12:12:00;;;;;;;6.60;5.30;;;;;;;3.27;100.00;100800.97;4828362;29;20502;-80
2022/01/25 12:14:51;;;;;;;7.00;5.27;;;;;;;3.27;100.00;100808.94;4841359;29;20327;-81
2022/01/25 12:17:19;;;;;;;6.50;5.80;;;;;;;3.35;100.00;100809.91;4840487;29;20211;-81
2022/01/25 12:19:54;;;;;;;6.73;6.03;;;;;;;3.33;100.00;100806.53;4841187;29;20205;-81
2022/01/25 12:22:40;;;;;;;8.20;5.30;;;;;;;3.26;100.00;100804.63;4841387;29;20189;-81
2022/01/25 12:25:15;;;;;;;7.17;6.43;;;;;;;3.16;100.00;100815.25;4827786;29;20509;-80
2022/01/25 12:27:56;;;;;;;10.67;7.00;;;;;;;3.08;100.00;100807.16;4842453;29;20508;-81
2022/01/25 12:30:26;;;;;;;8.70;6.43;;;;;;;3.06;100.00;100798.53;4841600;29;20197;-80
2022/01/25 12:32:59;;;;;;;8.67;6.77;;;;;;;3.14;100.00;100793.34;4844874;29;20201;-81
2022/01/25 12:35:50;;;;;;;8.20;6.53;;;;;;;3.11;100.00;100796.31;4830015;29;20597;-81
2022/01/25 12:38:29;;;;;;;7.67;5.70;;;;;;;3.03;100.00;100798.84;4844760;29;20232;-80
2022/01/25 12:41:08;;;;;;;8.60;5.90;;;;;;;3.02;100.00;100794.50;4844256;29;20296;-81
2022/01/25 12:43:44;;;;;;;8.53;6.60;;;;;;;2.96;100.00;100792.44;4844617;29;20272;-80
2022/01/25 12:46:13;;;;;;;8.43;6.20;;;;;;;2.94;100.00;100781.97;4844850;29;20201;-81
2022/01/25 12:48:55;;;;;;;8.90;7.13;;;;;;;2.91;100.00;100802.59;4844658;29;20229;-81
2022/01/25 12:51:27;;;;;;;9.43;7.27;;;;;;;3.01;100.00;100806.06;4844440;29;20185;-81
2022/01/25 12:53:58;;;;;;;9.37;7.37;;;;;;;3.07;100.00;100801.06;4845563;29;20473;-82
2022/01/25 12:56:33;;;;;;;7.83;5.93;;;;;;;3.03;100.00;100788.25;4829251;29;20220;-81
2022/01/25 12:59:07;;;;;;;9.00;6.97;;;;;;;2.99;100.00;100790.31;4844386;29;20216;-80
2022/01/25 13:01:37;;;;;;;8.33;6.87;;;;;;;3.08;100.00;100791.28;4844357;29;20199;-81
2022/01/25 13:04:06;;;;;;;8.13;6.77;;;;;;;3.04;100.00;100784.59;4844389;29;20193;-81
2022/01/25 13:06:35;;;;;;;9.07;6.60;;;;;;;3.04;100.00;100777.50;4844112;29;20507;-81
2022/01/25 13:09:12;;;;;;;7.33;6.53;;;;;;;3.16;100.00;100790.56;4844298;29;20207;-81